Terminal Aerodrome Forecast
Issued by NWS

Current Version | Previous Version | Graphics & Text | Print | Product List | Glossary On
Versions: 1 2 3 4 5 6 7 8 9 10 11 12 13 14 15 16 17 18 19 20 21 22
024
FTUS41 KILN 202023 AAD
TAFLCK
TAF AMD
KLCK 202023Z 2020/2118 12008KT P6SM BKN015 BKN050
     FM202300 13006KT P6SM VCTS BKN050CB
     FM210800 15006KT 5SM -SHRA VCTS OVC050CB
     FM211100 16007KT 4SM -SHRA VCTS OVC025CB
     FM211500 17010G18KT 3SM -SHRA VCTS OVC015CB=

USA.gov is the U.S. government's official web portal to all federal, state and local government web resources and services.